Time;durP1;ratioP1;P1;durP2;ratioP2;P2;SDS_P1;SDS_P2;PMS_P1;PMS_P2;Temp;Humidity;BMP_temperature;BMP_pressure;BME280_temperature;BME280_humidity;BME280_pressure;Samples;Min_cycle;Max_cycle;Signal;HPM_P1;HPM_P2
2021/12/09 00:00:53;;;;;;;10.18;4.35;;;2.80;99.90;;;;;;5112450;28;20127;-68
2021/12/09 00:03:19;;;;;;;9.40;4.03;;;2.90;99.90;;;;;;5112282;28;20052;-65
2021/12/09 00:05:46;;;;;;;10.48;5.10;;;2.80;99.90;;;;;;5111711;28;20094;-66
2021/12/09 00:08:13;;;;;;;9.27;4.40;;;2.80;99.90;;;;;;5114020;28;20055;-67
2021/12/09 00:10:40;;;;;;;6.97;4.43;;;2.80;99.90;;;;;;5113766;28;20055;-65
2021/12/09 00:13:06;;;;;;;13.23;5.50;;;2.80;99.90;;;;;;5112715;28;20080;-65
2021/12/09 00:15:32;;;;;;;10.82;5.72;;;2.80;99.90;;;;;;5129755;27;20078;-66
2021/12/09 00:17:58;;;;;;;10.65;4.53;;;2.70;99.90;;;;;;5113990;27;20058;-67
2021/12/09 00:20:24;;;;;;;6.78;3.85;;;2.80;99.90;;;;;;5112621;28;20051;-71
2021/12/09 00:22:50;;;;;;;18.70;4.07;;;2.80;99.90;;;;;;5129116;27;20047;-66
2021/12/09 00:25:16;;;;;;;11.57;5.57;;;2.80;99.90;;;;;;5113358;28;20047;-66
2021/12/09 00:27:43;;;;;;;11.02;4.82;;;2.80;99.90;;;;;;5112121;28;20043;-65
2021/12/09 00:30:10;;;;;;;8.68;4.55;;;2.80;99.90;;;;;;5095805;28;20039;-66
2021/12/09 00:32:37;;;;;;;10.65;4.97;;;2.70;99.90;;;;;;5113092;28;20434;-68
2021/12/09 00:35:04;;;;;;;11.48;6.13;;;2.70;99.90;;;;;;5112109;28;20138;-65
2021/12/09 00:37:37;;;;;;;12.30;5.88;;;2.70;99.90;;;;;;5112135;28;20060;-66
2021/12/09 00:40:04;;;;;;;8.73;4.93;;;2.70;99.90;;;;;;5128393;27;20123;-66
2021/12/09 00:42:30;;;;;;;11.98;4.90;;;2.70;99.90;;;;;;5128750;27;20051;-66
2021/12/09 00:44:56;;;;;;;11.48;5.60;;;2.70;99.90;;;;;;5113237;28;20388;-67
2021/12/09 00:47:22;;;;;;;6.53;4.85;;;2.60;99.90;;;;;;5128793;27;20039;-65
2021/12/09 00:49:49;;;;;;;11.32;5.20;;;2.60;99.90;;;;;;5111245;28;20548;-68
2021/12/09 00:52:16;;;;;;;9.88;6.30;;;2.60;99.90;;;;;;5113239;28;20063;-66
2021/12/09 00:54:42;;;;;;;9.98;5.18;;;2.60;99.90;;;;;;5112287;28;20049;-65
2021/12/09 00:57:09;;;;;;;11.07;6.10;;;2.60;99.90;;;;;;5112151;28;20039;-65
2021/12/09 00:59:35;;;;;;;11.98;5.32;;;2.60;99.90;;;;;;5128105;27;20050;-66
2021/12/09 01:02:01;;;;;;;10.18;5.82;;;2.40;99.90;;;;;;5111217;28;20059;-67
2021/12/09 01:04:27;;;;;;;12.23;5.50;;;2.40;99.90;;;;;;5111936;28;20055;-66
2021/12/09 01:06:53;;;;;;;13.38;6.53;;;2.40;99.90;;;;;;5112432;28;20046;-65
2021/12/09 01:09:18;;;;;;;13.20;6.32;;;2.30;99.90;;;;;;5111563;28;20496;-66
2021/12/09 01:11:45;;;;;;;14.38;7.05;;;2.40;99.90;;;;;;5128248;27;20077;-66
2021/12/09 01:14:11;;;;;;;12.45;6.25;;;2.60;99.90;;;;;;5112755;28;20044;-65
2021/12/09 01:16:37;;;;;;;10.38;5.97;;;2.30;99.90;;;;;;5111836;28;20054;-67
2021/12/09 01:19:03;;;;;;;11.10;6.15;;;2.30;99.90;;;;;;5128468;27;20047;-65
2021/12/09 01:21:29;;;;;;;11.05;5.40;;;2.30;99.90;;;;;;5112331;28;20050;-66
2021/12/09 01:23:55;;;;;;;15.57;6.15;;;2.50;99.90;;;;;;5112221;28;20119;-66
2021/12/09 01:26:21;;;;;;;15.27;6.10;;;2.40;99.90;;;;;;5111413;28;20083;-65
2021/12/09 01:28:55;;;;;;;15.18;7.03;;;2.30;99.90;;;;;;5112069;28;20047;-67
2021/12/09 01:31:29;;;;;;;16.08;6.80;;;2.20;99.90;;;;;;5111147;28;20040;-65
2021/12/09 01:34:00;;;;;;;11.68;5.88;;;2.20;99.90;;;;;;5111068;28;20130;-65
2021/12/09 01:36:26;;;;;;;12.05;6.80;;;2.20;99.90;;;;;;5094316;28;20048;-65
2021/12/09 01:38:52;;;;;;;12.45;7.15;;;2.20;99.90;;;;;;5093854;28;20058;-68
2021/12/09 01:41:17;;;;;;;10.63;6.85;;;2.30;99.90;;;;;;5128098;27;20070;-65
2021/12/09 01:43:44;;;;;;;14.13;8.18;;;2.10;99.90;;;;;;5111543;28;20047;-65
2021/12/09 01:46:16;;;;;;;13.48;6.25;;;2.10;99.90;;;;;;5112227;28;20135;-66
2021/12/09 01:48:43;;;;;;;12.38;7.00;;;2.10;99.90;;;;;;5110654;28;20051;-68
2021/12/09 01:51:10;;;;;;;13.40;7.55;;;2.20;99.90;;;;;;5128022;27;20096;-65
2021/12/09 01:53:37;;;;;;;13.20;7.43;;;2.20;99.90;;;;;;5111144;28;20048;-66
2021/12/09 01:56:06;;;;;;;16.42;7.88;;;2.20;99.90;;;;;;5127366;27;20036;-66
2021/12/09 01:58:32;;;;;;;12.13;6.85;;;2.20;99.90;;;;;;5112038;28;20126;-64
2021/12/09 02:00:58;;;;;;;16.20;7.45;;;2.20;99.90;;;;;;5110481;28;20515;-66
2021/12/09 02:03:25;;;;;;;16.13;7.90;;;2.40;99.90;;;;;;5110614;28;20136;-67
2021/12/09 02:05:51;;;;;;;16.40;7.57;;;2.20;99.90;;;;;;5111504;28;20050;-66
2021/12/09 02:08:17;;;;;;;13.63;7.40;;;2.20;99.90;;;;;;5112126;28;20047;-66
2021/12/09 02:10:45;;;;;;;14.30;8.23;;;2.20;99.90;;;;;;5128893;28;20067;-72
2021/12/09 02:13:11;;;;;;;12.43;6.25;;;2.20;99.90;;;;;;5113659;28;20141;-65
2021/12/09 02:15:38;;;;;;;14.98;7.75;;;2.30;99.90;;;;;;5113169;28;20051;-67
2021/12/09 02:18:07;;;;;;;11.30;6.43;;;2.20;99.90;;;;;;5112277;28;20051;-64
2021/12/09 02:20:34;;;;;;;12.60;8.30;;;2.30;99.90;;;;;;5114198;28;20047;-68
2021/12/09 02:23:06;;;;;;;12.82;6.70;;;2.20;99.90;;;;;;5113398;28;20094;-65
2021/12/09 02:25:33;;;;;;;15.70;8.45;;;2.20;99.90;;;;;;5111968;28;20047;-66
2021/12/09 02:27:58;;;;;;;13.60;7.55;;;2.20;99.90;;;;;;5111600;28;20047;-66
2021/12/09 02:30:24;;;;;;;14.77;7.50;;;2.20;99.90;;;;;;5114858;28;20050;-66
2021/12/09 02:32:51;;;;;;;13.32;8.73;;;2.10;99.90;;;;;;5131513;27;20117;-66
2021/12/09 02:35:17;;;;;;;17.77;8.25;;;2.10;99.90;;;;;;5115809;28;20046;-65
2021/12/09 02:37:44;;;;;;;16.25;8.48;;;2.10;99.90;;;;;;5097862;28;20142;-63
2021/12/09 02:40:11;;;;;;;17.73;8.60;;;2.20;99.90;;;;;;5097247;28;20048;-65
2021/12/09 02:42:37;;;;;;;10.20;6.90;;;2.10;99.90;;;;;;5097483;28;20048;-66
2021/12/09 02:45:08;;;;;;;18.77;8.93;;;2.10;99.90;;;;;;5115226;28;20047;-66
2021/12/09 02:47:34;;;;;;;19.08;8.90;;;2.10;99.90;;;;;;5097692;28;20056;-66
2021/12/09 02:50:00;;;;;;;12.65;7.18;;;2.10;99.90;;;;;;5114069;28;20051;-66
2021/12/09 02:52:26;;;;;;;16.73;7.13;;;2.10;99.90;;;;;;5131424;27;20043;-65
2021/12/09 02:54:52;;;;;;;12.45;7.35;;;2.10;99.90;;;;;;5096799;28;20110;-65
2021/12/09 02:57:18;;;;;;;16.38;7.47;;;2.10;99.90;;;;;;5115491;28;20170;-65
2021/12/09 02:59:44;;;;;;;13.15;8.13;;;2.50;99.90;;;;;;5115339;28;20044;-65
2021/12/09 03:02:11;;;;;;;16.30;8.95;;;2.10;99.90;;;;;;5114671;28;20043;-66
2021/12/09 03:04:47;;;;;;;17.08;7.63;;;2.10;99.90;;;;;;5115428;28;20044;-65
2021/12/09 03:07:27;;;;;;;17.08;7.50;;;2.00;99.90;;;;;;5113840;28;20503;-66
2021/12/09 03:09:59;;;;;;;13.30;8.25;;;2.30;99.90;;;;;;5098532;28;20047;-72
2021/12/09 03:12:32;;;;;;;13.25;7.05;;;2.40;99.90;;;;;;5115363;28;20058;-65
2021/12/09 03:15:00;;;;;;;14.25;8.70;;;2.00;99.90;;;;;;5114481;28;20055;-66
2021/12/09 03:17:27;;;;;;;17.55;8.35;;;2.00;99.90;;;;;;5115202;28;20519;-65
2021/12/09 03:19:53;;;;;;;11.45;7.35;;;2.00;99.90;;;;;;5130914;27;20486;-70
2021/12/09 03:22:20;;;;;;;14.88;9.00;;;1.70;99.90;;;;;;5114895;28;20047;-66
2021/12/09 03:24:47;;;;;;;15.18;9.30;;;1.90;99.90;;;;;;5115097;28;20047;-64
2021/12/09 03:27:13;;;;;;;17.67;9.57;;;1.90;99.90;;;;;;5130035;27;20129;-65
2021/12/09 03:29:40;;;;;;;11.63;6.82;;;1.90;99.90;;;;;;5114931;28;20056;-66
2021/12/09 03:32:09;;;;;;;12.68;8.13;;;1.80;99.90;;;;;;5113008;28;20183;-66
2021/12/09 03:34:37;;;;;;;19.98;9.00;;;1.90;99.90;;;;;;5114402;27;20550;-67
2021/12/09 03:37:06;;;;;;;13.82;7.88;;;2.20;99.90;;;;;;5096274;28;20047;-66
2021/12/09 03:39:35;;;;;;;15.18;8.82;;;2.10;99.90;;;;;;5114273;28;20126;-64
2021/12/09 03:42:02;;;;;;;19.90;9.82;;;1.80;99.90;;;;;;5112773;28;20052;-65
2021/12/09 03:44:28;;;;;;;22.23;9.07;;;1.80;99.90;;;;;;5096515;28;20116;-67
2021/12/09 03:46:57;;;;;;;18.10;8.45;;;1.80;99.90;;;;;;5130684;27;20043;-66
2021/12/09 03:49:24;;;;;;;20.05;9.23;;;1.80;99.90;;;;;;5114366;28;20050;-65
2021/12/09 03:51:51;;;;;;;13.18;8.13;;;1.80;99.90;;;;;;5114355;28;20048;-66
2021/12/09 03:54:18;;;;;;;16.92;9.48;;;1.80;99.90;;;;;;5112726;28;20075;-65
2021/12/09 03:56:43;;;;;;;14.00;8.23;;;1.70;99.90;;;;;;5114319;28;20051;-65
2021/12/09 03:59:10;;;;;;;10.77;7.75;;;1.80;99.90;;;;;;5112940;28;20055;-66
2021/12/09 04:01:39;;;;;;;15.90;8.32;;;1.80;99.90;;;;;;5112788;28;20078;-67
2021/12/09 04:04:06;;;;;;;16.63;9.90;;;1.90;99.90;;;;;;5113789;28;20097;-66
2021/12/09 04:06:33;;;;;;;12.75;7.88;;;1.70;99.90;;;;;;5130173;27;20259;-66
2021/12/09 04:09:00;;;;;;;12.85;7.47;;;1.70;99.90;;;;;;5113180;28;20082;-66
2021/12/09 04:11:27;;;;;;;13.52;8.05;;;1.70;99.90;;;;;;5113778;28;20044;-66
2021/12/09 04:13:54;;;;;;;18.10;9.60;;;1.70;99.90;;;;;;5129651;27;20481;-66
2021/12/09 04:16:21;;;;;;;16.77;8.80;;;1.80;99.90;;;;;;5112374;28;20486;-66
2021/12/09 04:18:47;;;;;;;18.60;9.18;;;1.70;99.90;;;;;;5113937;28;20396;-65
2021/12/09 04:21:13;;;;;;;16.75;8.95;;;1.70;99.90;;;;;;5129198;27;20046;-65
2021/12/09 04:23:39;;;;;;;15.00;8.77;;;1.60;99.90;;;;;;5112522;28;20047;-64
2021/12/09 04:26:06;;;;;;;19.13;9.35;;;1.60;99.90;;;;;;5113177;28;20044;-68
2021/12/09 04:28:33;;;;;;;14.48;8.98;;;1.50;99.90;;;;;;5112467;28;20051;-65
2021/12/09 04:31:00;;;;;;;15.82;9.43;;;1.50;99.90;;;;;;5113795;28;20115;-67
2021/12/09 04:33:26;;;;;;;17.98;9.18;;;1.40;99.90;;;;;;5111616;28;20077;-65
2021/12/09 04:35:52;;;;;;;15.43;8.52;;;1.40;99.90;;;;;;5113625;28;20044;-66
2021/12/09 04:38:18;;;;;;;13.27;9.18;;;1.40;99.90;;;;;;5113246;28;20043;-65
2021/12/09 04:40:44;;;;;;;17.40;10.23;;;1.40;99.90;;;;;;5129500;27;20423;-65
2021/12/09 04:43:10;;;;;;;14.82;8.70;;;1.30;99.90;;;;;;5113005;27;20082;-65
2021/12/09 04:45:38;;;;;;;15.05;9.63;;;1.50;99.90;;;;;;5113058;28;20110;-67
2021/12/09 04:48:06;;;;;;;17.10;9.98;;;1.30;99.90;;;;;;5112027;28;20070;-66
2021/12/09 04:50:33;;;;;;;19.00;10.02;;;1.30;99.90;;;;;;5112311;28;20052;-67
2021/12/09 04:52:58;;;;;;;16.30;8.63;;;1.30;99.90;;;;;;5111438;28;20046;-65
2021/12/09 04:55:24;;;;;;;15.20;9.65;;;1.20;99.90;;;;;;5112514;28;20044;-66
2021/12/09 04:57:50;;;;;;;17.20;9.82;;;1.20;99.90;;;;;;5113059;28;20469;-65
2021/12/09 05:00:20;;;;;;;14.60;8.25;;;1.20;99.90;;;;;;5112631;28;20123;-67
2021/12/09 05:03:10;;;;;;;19.45;10.13;;;1.10;99.90;;;;;;5111723;28;20104;-65
2021/12/09 05:05:40;;;;;;;14.20;8.35;;;1.10;99.90;;;;;;5111954;28;20143;-66
2021/12/09 05:08:10;;;;;;;15.48;10.30;;;1.10;99.90;;;;;;5112048;28;20101;-66
2021/12/09 05:10:55;;;;;;;17.38;10.63;;;1.00;99.90;;;;;;5112697;28;20047;-66
2021/12/09 05:13:23;;;;;;;11.45;7.22;;;1.00;99.90;;;;;;5111424;28;20097;-65
2021/12/09 05:15:48;;;;;;;13.75;8.18;;;1.00;99.90;;;;;;5112737;27;20454;-65
2021/12/09 05:18:16;;;;;;;14.20;8.02;;;1.00;99.90;;;;;;5128127;27;20052;-66
2021/12/09 05:20:43;;;;;;;15.85;7.68;;;0.90;99.90;;;;;;5112655;28;20042;-66
2021/12/09 05:23:09;;;;;;;13.45;8.50;;;0.90;99.90;;;;;;5128577;27;20044;-66
2021/12/09 05:25:35;;;;;;;12.52;7.07;;;0.90;99.90;;;;;;5093872;28;20054;-66
2021/12/09 05:28:01;;;;;;;14.32;9.05;;;0.90;99.90;;;;;;5112566;28;20055;-65
2021/12/09 05:30:38;;;;;;;22.70;10.40;;;0.80;99.90;;;;;;5112125;28;20047;-66
2021/12/09 05:33:06;;;;;;;19.38;10.68;;;0.80;99.90;;;;;;5094635;28;20043;-66
2021/12/09 05:35:33;;;;;;;12.93;7.57;;;0.80;99.90;;;;;;5111977;28;20046;-65
2021/12/09 05:37:59;;;;;;;25.00;10.15;;;0.70;99.90;;;;;;5111369;28;20040;-67
2021/12/09 05:40:26;;;;;;;16.40;9.48;;;0.80;99.90;;;;;;5111809;28;20039;-66
2021/12/09 05:42:52;;;;;;;14.30;8.32;;;0.60;99.90;;;;;;5111413;28;20051;-66
2021/12/09 05:45:17;;;;;;;18.33;11.00;;;0.60;99.90;;;;;;5127576;27;20047;-67
2021/12/09 05:47:43;;;;;;;17.50;11.07;;;0.60;99.90;;;;;;5111057;28;20044;-67
2021/12/09 05:50:11;;;;;;;22.00;11.13;;;0.60;99.90;;;;;;5111155;28;20105;-65
2021/12/09 05:52:37;;;;;;;20.50;10.98;;;0.60;99.90;;;;;;5111738;28;20039;-66
2021/12/09 05:55:03;;;;;;;17.80;9.88;;;0.80;99.90;;;;;;5111730;28;20380;-68
2021/12/09 05:57:29;;;;;;;18.05;11.30;;;0.50;99.90;;;;;;5111661;28;20134;-66
2021/12/09 05:59:55;;;;;;;15.25;9.63;;;0.50;99.90;;;;;;5127813;27;20481;-66
2021/12/09 06:02:21;;;;;;;17.35;10.57;;;0.50;99.90;;;;;;5110215;28;20052;-66
2021/12/09 06:04:47;;;;;;;17.75;11.18;;;0.50;99.90;;;;;;5111186;28;20105;-66
2021/12/09 06:07:14;;;;;;;15.82;9.80;;;0.50;99.90;;;;;;5111103;28;20550;-66
2021/12/09 06:09:40;;;;;;;16.10;9.52;;;0.50;99.90;;;;;;5111655;28;20039;-65
2021/12/09 06:12:07;;;;;;;16.77;8.75;;;0.60;99.90;;;;;;5112041;28;20059;-65
2021/12/09 06:14:33;;;;;;;13.80;9.02;;;0.60;99.90;;;;;;5110417;28;20047;-64
2021/12/09 06:16:58;;;;;;;15.23;8.98;;;0.60;99.90;;;;;;5110754;28;20070;-66
2021/12/09 06:19:24;;;;;;;20.55;11.25;;;0.60;99.90;;;;;;5110395;28;20484;-66
2021/12/09 06:21:50;;;;;;;18.98;9.50;;;0.60;99.90;;;;;;5093405;28;20140;-66
2021/12/09 06:24:18;;;;;;;19.25;11.32;;;0.60;99.90;;;;;;5111893;28;20044;-65
2021/12/09 06:26:44;;;;;;;19.83;9.48;;;0.70;99.90;;;;;;5110536;28;20047;-65
2021/12/09 06:29:10;;;;;;;17.98;10.00;;;0.60;99.90;;;;;;5127893;28;20047;-66
2021/12/09 06:31:36;;;;;;;23.10;11.20;;;0.60;99.90;;;;;;5109627;28;20048;-66
2021/12/09 06:34:02;;;;;;;13.30;8.73;;;0.70;99.90;;;;;;5093733;28;20057;-65
2021/12/09 06:36:28;;;;;;;19.88;10.98;;;0.70;99.90;;;;;;5110326;28;20052;-65
2021/12/09 06:38:53;;;;;;;13.68;8.75;;;1.00;99.90;;;;;;5093737;28;20050;-65
2021/12/09 06:41:19;;;;;;;15.55;6.88;;;0.90;99.90;;;;;;5127301;28;20040;-67
2021/12/09 06:43:45;;;;;;;16.50;8.63;;;0.90;99.90;;;;;;5109515;28;20051;-65
2021/12/09 06:46:12;;;;;;;15.73;7.80;;;0.90;99.90;;;;;;5109784;28;20066;-66
2021/12/09 06:48:39;;;;;;;15.70;9.25;;;0.90;99.90;;;;;;5110172;28;20047;-65
2021/12/09 06:51:06;;;;;;;16.45;10.68;;;0.80;99.90;;;;;;5111627;28;20086;-65
2021/12/09 06:53:33;;;;;;;13.85;8.65;;;0.90;99.90;;;;;;5092951;28;20047;-64
2021/12/09 06:55:59;;;;;;;20.13;10.63;;;0.90;99.90;;;;;;5111276;28;20047;-66
2021/12/09 06:58:27;;;;;;;23.13;11.18;;;0.80;99.90;;;;;;5109896;28;20100;-65
2021/12/09 07:00:54;;;;;;;19.15;10.88;;;0.80;99.90;;;;;;5109705;28;20040;-66
2021/12/09 07:03:21;;;;;;;19.98;10.63;;;0.80;99.90;;;;;;5109949;28;20051;-66
2021/12/09 07:05:51;;;;;;;27.85;12.80;;;0.70;99.90;;;;;;5110082;28;20055;-65
2021/12/09 07:08:18;;;;;;;24.58;12.65;;;0.60;99.90;;;;;;5110639;28;20051;-66
2021/12/09 07:10:45;;;;;;;19.75;11.60;;;0.60;99.90;;;;;;5110018;28;20058;-65
2021/12/09 07:13:10;;;;;;;23.25;12.70;;;0.60;99.90;;;;;;5109938;28;20131;-68
2021/12/09 07:15:36;;;;;;;24.77;11.80;;;0.50;99.90;;;;;;5113655;28;20181;-66
2021/12/09 07:18:03;;;;;;;21.90;11.48;;;0.50;99.90;;;;;;5097081;28;20052;-66
2021/12/09 07:20:30;;;;;;;21.98;10.93;;;0.50;99.90;;;;;;5114944;28;20044;-66
2021/12/09 07:22:57;;;;;;;21.42;12.45;;;0.50;99.90;;;;;;5113075;28;20051;-66
2021/12/09 07:25:27;;;;;;;27.30;13.57;;;0.50;99.90;;;;;;5114830;28;20400;-67
2021/12/09 07:27:53;;;;;;;28.75;11.70;;;0.50;99.90;;;;;;5113925;28;20325;-64
2021/12/09 07:30:22;;;;;;;20.77;11.82;;;0.80;99.90;;;;;;5096346;28;20050;-65
2021/12/09 07:32:48;;;;;;;23.38;13.57;;;0.40;99.90;;;;;;5112399;28;20040;-65
2021/12/09 07:35:15;;;;;;;17.50;10.63;;;0.40;99.90;;;;;;5113343;28;20480;-66
2021/12/09 07:37:41;;;;;;;20.77;11.38;;;0.40;99.90;;;;;;5113062;28;20043;-66
2021/12/09 07:40:10;;;;;;;23.40;11.95;;;0.40;99.90;;;;;;5114239;27;20044;-65
2021/12/09 07:42:36;;;;;;;22.23;10.82;;;0.40;99.90;;;;;;5114032;28;20055;-70
2021/12/09 07:45:05;;;;;;;20.23;12.13;;;0.40;99.90;;;;;;5096072;28;20047;-64
2021/12/09 07:47:30;;;;;;;20.63;11.68;;;0.40;99.90;;;;;;5113124;28;20073;-66
2021/12/09 07:49:56;;;;;;;19.92;11.00;;;0.30;99.90;;;;;;5095791;28;20126;-65
2021/12/09 07:52:22;;;;;;;21.58;11.63;;;0.30;99.90;;;;;;5113128;28;20039;-64
2021/12/09 07:54:48;;;;;;;19.15;11.73;;;0.40;99.90;;;;;;5095971;28;20039;-66
2021/12/09 07:57:13;;;;;;;17.77;10.93;;;0.30;99.90;;;;;;5079441;28;20047;-65
2021/12/09 07:59:39;;;;;;;22.80;11.52;;;0.30;99.90;;;;;;5112705;28;20141;-66
2021/12/09 08:02:07;;;;;;;21.50;11.63;;;0.30;99.90;;;;;;5079155;28;20160;-64
2021/12/09 08:04:33;;;;;;;20.95;11.02;;;0.50;99.90;;;;;;5113000;28;20561;-65
2021/12/09 08:07:00;;;;;;;22.25;10.18;;;0.40;99.90;;;;;;5095648;28;20043;-65
2021/12/09 08:09:27;;;;;;;22.67;11.10;;;0.40;99.90;;;;;;5112896;28;20144;-64
2021/12/09 08:11:53;;;;;;;18.95;10.43;;;0.40;99.90;;;;;;5095079;28;20047;-66
2021/12/09 08:14:20;;;;;;;19.95;9.85;;;0.40;99.90;;;;;;5112719;28;20082;-66
2021/12/09 08:16:56;;;;;;;19.65;11.70;;;0.40;99.90;;;;;;5112265;28;20054;-65
2021/12/09 08:19:21;;;;;;;19.27;10.48;;;0.40;99.90;;;;;;5112563;28;20496;-66
2021/12/09 08:21:47;;;;;;;17.27;9.02;;;0.40;99.90;;;;;;5111975;28;20078;-67
2021/12/09 08:24:13;;;;;;;18.27;10.13;;;0.40;99.90;;;;;;5129722;27;20055;-65
2021/12/09 08:26:39;;;;;;;24.77;12.35;;;0.40;99.90;;;;;;5111145;28;20457;-66
2021/12/09 08:29:05;;;;;;;13.40;7.68;;;0.50;99.90;;;;;;5128089;27;20051;-66
2021/12/09 08:31:33;;;;;;;20.70;11.20;;;0.50;99.90;;;;;;5112033;28;20439;-65
2021/12/09 08:34:01;;;;;;;16.50;10.20;;;0.50;99.90;;;;;;5095114;28;20111;-66
2021/12/09 08:36:27;;;;;;;23.77;11.65;;;0.70;99.90;;;;;;5095783;28;20055;-65
2021/12/09 08:38:52;;;;;;;18.80;11.07;;;0.70;99.90;;;;;;5111814;28;20130;-66
2021/12/09 08:41:19;;;;;;;17.20;9.88;;;0.70;99.90;;;;;;5112239;28;20043;-67
2021/12/09 08:43:46;;;;;;;17.17;9.88;;;0.70;99.90;;;;;;5112055;28;20161;-71
2021/12/09 08:46:15;;;;;;;21.27;9.85;;;0.80;99.90;;;;;;5112434;28;20392;-66
2021/12/09 08:48:41;;;;;;;14.82;8.57;;;0.80;99.90;;;;;;5113171;28;20060;-66
2021/12/09 08:51:07;;;;;;;18.45;9.52;;;0.90;99.90;;;;;;5128546;27;20573;-66
2021/12/09 08:53:33;;;;;;;17.35;8.52;;;1.00;99.90;;;;;;5095077;28;20149;-66
2021/12/09 08:55:59;;;;;;;16.60;9.48;;;1.10;99.90;;;;;;5111630;28;20134;-68
2021/12/09 08:58:28;;;;;;;14.93;9.98;;;1.10;99.90;;;;;;5111881;28;20040;-66
2021/12/09 09:00:57;;;;;;;20.40;11.15;;;1.20;99.90;;;;;;5110937;28;20084;-66
2021/12/09 09:03:23;;;;;;;21.70;9.32;;;1.20;99.90;;;;;;5110715;28;20109;-67
2021/12/09 09:05:50;;;;;;;13.82;7.45;;;1.30;99.90;;;;;;5110750;28;20142;-67
2021/12/09 09:08:16;;;;;;;14.52;7.50;;;1.60;99.90;;;;;;5111352;28;20044;-65
2021/12/09 09:10:43;;;;;;;20.95;9.75;;;1.30;99.90;;;;;;5111457;28;20047;-65
2021/12/09 09:13:10;;;;;;;16.15;8.60;;;1.40;99.90;;;;;;5094050;28;20116;-65
2021/12/09 09:15:37;;;;;;;20.90;10.15;;;1.50;99.90;;;;;;5111244;28;20056;-65
2021/12/09 09:18:04;;;;;;;19.08;9.15;;;1.50;99.90;;;;;;5111245;28;20446;-65
2021/12/09 09:20:31;;;;;;;21.63;8.93;;;1.50;99.90;;;;;;5111423;28;20071;-64
2021/12/09 09:22:57;;;;;;;17.83;9.43;;;1.60;99.90;;;;;;5094093;28;20051;-65
2021/12/09 09:25:29;;;;;;;14.70;9.95;;;1.60;99.90;;;;;;5094735;28;20079;-66
2021/12/09 09:27:56;;;;;;;16.85;8.48;;;1.70;99.90;;;;;;5077976;28;20056;-68
2021/12/09 09:30:25;;;;;;;13.27;7.97;;;1.70;99.90;;;;;;5111499;28;20397;-66
2021/12/09 09:32:51;;;;;;;15.23;8.60;;;1.80;99.90;;;;;;5111166;28;20044;-70
2021/12/09 09:35:18;;;;;;;16.60;7.78;;;1.80;99.90;;;;;;5094340;28;20200;-67
2021/12/09 09:37:44;;;;;;;18.67;7.38;;;1.80;99.90;;;;;;5094158;28;20650;-65
2021/12/09 09:40:13;;;;;;;17.85;8.40;;;1.80;99.90;;;;;;5092261;28;20062;-67
2021/12/09 09:45:08;;;;;;;14.00;7.70;;;1.90;99.90;;;;;;5110364;28;20153;-65
2021/12/09 09:47:34;;;;;;;21.27;8.60;;;2.00;99.90;;;;;;5111243;28;20043;-65
2021/12/09 09:50:00;;;;;;;14.57;7.70;;;2.00;99.90;;;;;;5125973;27;20374;-65
2021/12/09 09:52:26;;;;;;;12.95;6.70;;;2.10;99.90;;;;;;5093643;28;20055;-66
2021/12/09 09:54:54;;;;;;;12.65;6.43;;;2.10;99.90;;;;;;5110624;28;20090;-64
2021/12/09 09:57:21;;;;;;;18.83;8.65;;;2.20;99.90;;;;;;5110301;28;20062;-66
2021/12/09 09:59:47;;;;;;;12.95;6.32;;;2.20;99.90;;;;;;5110519;28;20058;-65
2021/12/09 10:02:13;;;;;;;15.68;7.20;;;2.30;99.90;;;;;;5092080;28;20055;-66
2021/12/09 10:04:48;;;;;;;15.23;7.72;;;2.40;99.90;;;;;;5110409;28;20400;-65
2021/12/09 10:07:21;;;;;;;;;;;2.40;99.90;;;;;;5110290;28;20058;-64
2021/12/09 10:09:48;;;;;;;14.10;7.53;;;2.50;99.90;;;;;;5111953;28;20383;-65
2021/12/09 10:12:15;;;;;;;17.02;7.97;;;2.50;99.90;;;;;;5111437;28;20047;-66
2021/12/09 10:14:45;;;;;;;16.75;7.90;;;2.50;99.90;;;;;;5110271;28;20075;-64
2021/12/09 10:17:15;;;;;;;15.77;7.35;;;2.70;99.90;;;;;;5110079;28;20549;-66
2021/12/09 10:20:04;;;;;;;16.30;6.90;;;2.60;99.90;;;;;;5093592;28;20048;-67
2021/12/09 10:22:35;;;;;;;11.88;6.35;;;2.60;99.90;;;;;;5110649;28;20058;-64
2021/12/09 10:25:15;;;;;;;15.60;6.45;;;2.70;99.90;;;;;;5110475;28;20088;-69
2021/12/09 10:27:44;;;;;;;16.70;7.05;;;2.70;99.90;;;;;;5111993;28;20048;-65
2021/12/09 10:30:15;;;;;;;13.75;6.32;;;2.70;99.90;;;;;;5093369;28;20039;-66
2021/12/09 10:32:42;;;;;;;13.00;7.00;;;2.70;99.90;;;;;;5110679;28;20044;-64
2021/12/09 10:35:30;;;;;;;14.25;7.35;;;2.80;99.90;;;;;;5110057;28;20051;-63
2021/12/09 10:37:56;;;;;;;11.00;5.93;;;2.80;99.90;;;;;;5092890;28;20055;-64
2021/12/09 10:40:30;;;;;;;18.80;7.57;;;2.90;99.90;;;;;;5092934;28;20261;-64
2021/12/09 10:43:03;;;;;;;19.65;7.28;;;2.90;99.90;;;;;;5112200;28;20055;-64
2021/12/09 10:45:36;;;;;;;15.65;7.63;;;2.90;99.90;;;;;;5111467;28;20078;-64
2021/12/09 10:48:05;;;;;;;10.68;5.97;;;3.00;99.90;;;;;;5110410;28;20086;-68
2021/12/09 10:55:55;;;;;;;10.70;5.63;;;3.10;99.90;;;;;;5114724;28;20150;-66
2021/12/09 10:58:25;;;;;;;16.35;7.43;;;3.10;99.90;;;;;;5097517;28;20040;-65
2021/12/09 11:01:04;;;;;;;14.68;7.70;;;3.10;99.90;;;;;;5114166;28;20481;-67
2021/12/09 11:03:40;;;;;;;16.75;7.60;;;3.10;99.90;;;;;;5113793;28;20073;-66
2021/12/09 11:06:14;;;;;;;17.40;7.57;;;3.20;99.90;;;;;;5096902;28;20134;-65
2021/12/09 11:08:54;;;;;;;14.98;7.82;;;3.20;99.90;;;;;;5114275;28;20134;-66
2021/12/09 11:11:30;;;;;;;15.02;7.30;;;3.20;99.90;;;;;;5113992;28;20504;-66
2021/12/09 11:13:59;;;;;;;14.07;6.72;;;3.10;99.90;;;;;;5114250;28;20058;-65
2021/12/09 11:16:39;;;;;;;11.80;6.70;;;3.10;99.90;;;;;;5114912;28;20087;-66
2021/12/09 11:19:20;;;;;;;14.68;6.82;;;3.10;99.90;;;;;;5114813;28;20035;-72
2021/12/09 11:21:57;;;;;;;16.48;8.40;;;3.10;99.90;;;;;;5114027;28;20353;-65
2021/12/09 11:24:31;;;;;;;15.23;8.65;;;3.10;99.90;;;;;;5096927;28;20055;-66
2021/12/09 11:27:01;;;;;;;13.55;7.40;;;3.00;99.90;;;;;;5097195;28;20135;-67
2021/12/09 11:29:37;;;;;;;14.25;7.88;;;3.00;99.90;;;;;;5113438;28;20039;-66
2021/12/09 11:35:10;;;;;;;14.30;7.55;;;3.00;99.90;;;;;;5114947;28;20185;-66
2021/12/09 11:37:42;;;;;;;14.52;8.43;;;3.00;99.90;;;;;;5113682;28;20134;-66
2021/12/09 11:43:02;;;;;;;22.27;8.80;;;3.00;99.90;;;;;;5114912;28;20139;-65
2021/12/09 11:45:37;;;;;;;11.40;6.50;;;3.00;99.90;;;;;;5113534;28;20043;-65
2021/12/09 11:48:05;;;;;;;11.77;6.82;;;3.00;99.90;;;;;;5113661;28;20048;-67
2021/12/09 11:50:37;;;;;;;12.55;6.68;;;3.00;99.90;;;;;;5130189;27;20392;-66
2021/12/09 11:53:06;;;;;;;14.07;7.88;;;2.90;99.90;;;;;;5113649;28;20062;-66
2021/12/09 11:55:41;;;;;;;16.05;8.02;;;2.90;99.90;;;;;;5096374;28;20063;-65
2021/12/09 11:58:16;;;;;;;13.32;6.38;;;2.80;99.90;;;;;;5096367;28;20481;-65
2021/12/09 12:12:39;;;;;;;13.82;7.45;;;2.80;99.90;;;;;;5112952;28;20492;-66
2021/12/09 12:18:39;;;;;;;15.20;7.25;;;2.80;99.90;;;;;;5113251;28;20475;-66
2021/12/09 12:24:05;;;;;;;24.23;10.32;;;2.80;99.90;;;;;;5112748;28;20047;-66
2021/12/09 12:26:56;;;;;;;20.67;9.90;;;2.90;99.90;;;;;;5112766;28;20048;-66
2021/12/09 12:37:56;;;;;;;15.93;8.40;;;2.80;99.90;;;;;;5112473;28;20063;-66
2021/12/09 12:40:53;;;;;;;19.87;8.90;;;2.90;99.90;;;;;;5129593;27;20044;-67
2021/12/09 12:43:36;;;;;;;20.30;10.68;;;2.90;99.90;;;;;;5113399;28;20044;-66
2021/12/09 12:46:42;;;;;;;15.32;9.95;;;2.90;99.90;;;;;;5112385;28;20527;-66
2021/12/09 12:49:22;;;;;;;23.60;10.57;;;3.00;99.90;;;;;;5095696;28;20228;-65
2021/12/09 12:52:17;;;;;;;22.73;9.38;;;3.00;99.90;;;;;;5112498;28;20481;-66
2021/12/09 12:54:53;;;;;;;23.38;9.38;;;3.00;99.90;;;;;;5112455;28;20489;-66
2021/12/09 12:57:29;;;;;;;15.77;9.02;;;3.00;99.90;;;;;;5112230;28;20143;-66
2021/12/09 13:00:19;;;;;;;16.30;10.07;;;3.00;99.90;;;;;;5113249;28;20050;-65
2021/12/09 13:03:17;;;;;;;18.60;9.98;;;3.00;99.90;;;;;;5112992;28;20048;-68
2021/12/09 13:06:03;;;;;;;18.75;8.20;;;3.20;99.90;;;;;;5113125;27;20059;-65
2021/12/09 13:08:48;;;;;;;20.27;8.98;;;3.40;99.90;;;;;;5094971;28;20048;-65
2021/12/09 13:11:19;;;;;;;18.02;8.82;;;3.10;99.90;;;;;;5112167;28;20511;-66
2021/12/09 13:21:38;;;;;;;17.00;9.75;;;3.10;99.90;;;;;;5112645;28;20047;-65
2021/12/09 13:24:32;;;;;;;20.88;9.90;;;3.20;99.90;;;;;;5129104;27;20047;-66
2021/12/09 13:27:27;;;;;;;17.42;9.98;;;3.20;99.90;;;;;;5111978;28;20477;-66
2021/12/09 13:46:43;;;;;;;19.42;11.20;;;3.30;99.90;;;;;;5110942;28;20062;-73
2021/12/09 13:54:25;;;;;;;15.82;9.77;;;3.30;99.90;;;;;;5111481;28;20527;-65
2021/12/09 13:56:56;;;;;;;20.48;10.85;;;3.30;99.90;;;;;;5111067;28;20140;-67
2021/12/09 13:59:24;;;;;;;15.68;9.52;;;3.30;99.90;;;;;;5112321;28;20051;-65
2021/12/09 14:01:51;;;;;;;13.82;7.35;;;3.30;99.90;;;;;;5111023;28;20052;-66
2021/12/09 14:04:21;;;;;;;25.85;11.35;;;3.40;99.90;;;;;;5127314;27;20508;-67